sensor_id;sensor_type;location;lat;lon;timestamp;pressure;altitude;pressure_sealevel;temperature;humidity
18765;BME280;9511;54.242;12.448;2023-05-29T03:04:49;102062.25;;;10.36;90.70
18765;BME280;9511;54.242;12.448;2023-05-29T03:07:19;102063.09;;;10.35;90.47
18765;BME280;9511;54.242;12.448;2023-05-29T03:09:46;102054.25;;;10.35;90.14
18765;BME280;9511;54.242;12.448;2023-05-29T03:12:13;102058.47;;;10.31;90.16
18765;BME280;9511;54.242;12.448;2023-05-29T03:14:41;102076.88;;;10.28;89.78
18765;BME280;9511;54.242;12.448;2023-05-29T03:17:11;102073.31;;;10.28;89.99
18765;BME280;9511;54.242;12.448;2023-05-29T03:19:39;102066.41;;;10.31;90.25
18765;BME280;9511;54.242;12.448;2023-05-29T03:22:08;102061.06;;;10.30;90.11
18765;BME280;9511;54.242;12.448;2023-05-29T03:24:36;102060.84;;;10.25;90.25
18765;BME280;9511;54.242;12.448;2023-05-29T03:27:04;102070.59;;;10.26;89.88
18765;BME280;9511;54.242;12.448;2023-05-29T03:29:32;102074.91;;;10.24;90.05
18765;BME280;9511;54.242;12.448;2023-05-29T03:32:01;102068.63;;;10.22;89.56
18765;BME280;9511;54.242;12.448;2023-05-29T03:34:31;102072.91;;;10.20;89.64
18765;BME280;9511;54.242;12.448;2023-05-29T03:37:00;102068.56;;;10.21;89.80
18765;BME280;9511;54.242;12.448;2023-05-29T03:39:30;102075.66;;;10.22;89.70
18765;BME280;9511;54.242;12.448;2023-05-29T03:41:58;102070.47;;;10.23;89.23
18765;BME280;9511;54.242;12.448;2023-05-29T03:44:26;102072.25;;;10.24;89.52
18765;BME280;9511;54.242;12.448;2023-05-29T03:46:54;102067.81;;;10.23;89.43
18765;BME280;9511;54.242;12.448;2023-05-29T03:49:21;102069.47;;;10.21;89.35
18765;BME280;9511;54.242;12.448;2023-05-29T03:51:49;102072.16;;;10.23;89.00
18765;BME280;9511;54.242;12.448;2023-05-29T03:54:16;102077.56;;;10.24;88.90
18765;BME280;9511;54.242;12.448;2023-05-29T03:56:46;102074.22;;;10.28;88.42
18765;BME280;9511;54.242;12.448;2023-05-29T03:59:14;102083.97;;;10.29;88.00
18765;BME280;9511;54.242;12.448;2023-05-29T04:01:42;102087.44;;;10.28;87.95
18765;BME280;9511;54.242;12.448;2023-05-29T04:04:09;102083.06;;;10.29;87.97
18765;BME280;9511;54.242;12.448;2023-05-29T04:06:36;102088.63;;;10.35;88.09
18765;BME280;9511;54.242;12.448;2023-05-29T04:09:05;102088.19;;;10.44;87.40
18765;BME280;9511;54.242;12.448;2023-05-29T04:11:34;102088.59;;;10.53;87.54
18765;BME280;9511;54.242;12.448;2023-05-29T04:14:03;102087.34;;;10.64;87.35
18765;BME280;9511;54.242;12.448;2023-05-29T04:16:30;102084.97;;;10.70;87.42
18765;BME280;9511;54.242;12.448;2023-05-29T04:18:58;102086.25;;;10.78;87.45
18765;BME280;9511;54.242;12.448;2023-05-29T04:21:27;102092.63;;;10.83;87.01
18765;BME280;9511;54.242;12.448;2023-05-29T04:23:55;102087.50;;;10.86;86.48
18765;BME280;9511;54.242;12.448;2023-05-29T04:26:22;102091.03;;;10.87;86.21
18765;BME280;9511;54.242;12.448;2023-05-29T04:28:52;102089.63;;;10.95;85.61
18765;BME280;9511;54.242;12.448;2023-05-29T04:31:25;102094.38;;;11.02;85.37
18765;BME280;9511;54.242;12.448;2023-05-29T04:33:54;102092.91;;;11.09;84.64
18765;BME280;9511;54.242;12.448;2023-05-29T04:36:23;102097.53;;;11.13;84.42
18765;BME280;9511;54.242;12.448;2023-05-29T04:38:52;102100.56;;;11.22;84.46
18765;BME280;9511;54.242;12.448;2023-05-29T04:41:20;102101.94;;;11.33;83.88
18765;BME280;9511;54.242;12.448;2023-05-29T04:43:50;102105.47;;;11.34;83.40
18765;BME280;9511;54.242;12.448;2023-05-29T04:46:18;102103.19;;;11.41;82.80
18765;BME280;9511;54.242;12.448;2023-05-29T04:48:47;102112.16;;;11.45;82.19
18765;BME280;9511;54.242;12.448;2023-05-29T04:51:19;102107.91;;;11.49;81.54
18765;BME280;9511;54.242;12.448;2023-05-29T04:53:49;102115.16;;;11.53;80.69
18765;BME280;9511;54.242;12.448;2023-05-29T04:56:17;102116.09;;;11.55;79.73
18765;BME280;9511;54.242;12.448;2023-05-29T04:58:47;102110.91;;;11.58;79.45
18765;BME280;9511;54.242;12.448;2023-05-29T05:01:14;102113.44;;;11.55;78.42
18765;BME280;9511;54.242;12.448;2023-05-29T05:03:43;102125.41;;;11.66;79.34
18765;BME280;9511;54.242;12.448;2023-05-29T05:06:14;102117.13;;;11.79;78.70
18765;BME280;9511;54.242;12.448;2023-05-29T05:08:43;102115.75;;;11.87;78.90
18765;BME280;9511;54.242;12.448;2023-05-29T05:11:10;102119.47;;;11.92;78.85
18765;BME280;9511;54.242;12.448;2023-05-29T05:13:39;102121.41;;;11.96;78.81
18765;BME280;9511;54.242;12.448;2023-05-29T05:16:07;102118.16;;;12.04;77.93
18765;BME280;9511;54.242;12.448;2023-05-29T05:18:35;102114.94;;;12.11;77.80
18765;BME280;9511;54.242;12.448;2023-05-29T05:21:06;102115.06;;;12.14;77.74
18765;BME280;9511;54.242;12.448;2023-05-29T05:23:36;102120.50;;;12.17;77.52
18765;BME280;9511;54.242;12.448;2023-05-29T05:26:04;102126.06;;;12.23;77.82
18765;BME280;9511;54.242;12.448;2023-05-29T05:28:34;102123.34;;;12.21;77.25
18765;BME280;9511;54.242;12.448;2023-05-29T05:31:01;102120.34;;;12.14;76.98
18765;BME280;9511;54.242;12.448;2023-05-29T05:33:31;102133.97;;;12.21;77.94
18765;BME280;9511;54.242;12.448;2023-05-29T05:35:58;102135.88;;;12.26;77.83
18765;BME280;9511;54.242;12.448;2023-05-29T05:38:26;102130.81;;;12.32;77.50
18765;BME280;9511;54.242;12.448;2023-05-29T05:40:56;102121.41;;;12.17;77.83
18765;BME280;9511;54.242;12.448;2023-05-29T05:43:29;102125.59;;;12.33;78.90
18765;BME280;9511;54.242;12.448;2023-05-29T05:46:05;102129.91;;;12.31;78.03
18765;BME280;9511;54.242;12.448;2023-05-29T05:48:34;102122.94;;;12.33;77.76
18765;BME280;9511;54.242;12.448;2023-05-29T05:51:02;102115.78;;;12.32;77.27
18765;BME280;9511;54.242;12.448;2023-05-29T05:53:31;102121.47;;;12.41;77.32
18765;BME280;9511;54.242;12.448;2023-05-29T05:56:00;102131.84;;;12.35;77.16
18765;BME280;9511;54.242;12.448;2023-05-29T05:58:27;102129.06;;;12.32;76.12
18765;BME280;9511;54.242;12.448;2023-05-29T06:00:56;102131.84;;;12.35;76.19
18765;BME280;9511;54.242;12.448;2023-05-29T06:03:24;102128.63;;;12.44;75.83
18765;BME280;9511;54.242;12.448;2023-05-29T06:05:57;102124.13;;;12.64;76.45
18765;BME280;9511;54.242;12.448;2023-05-29T06:08:24;102130.50;;;12.69;76.97
18765;BME280;9511;54.242;12.448;2023-05-29T06:10:52;102127.38;;;12.57;76.18
18765;BME280;9511;54.242;12.448;2023-05-29T06:13:21;102126.38;;;12.77;76.37
18765;BME280;9511;54.242;12.448;2023-05-29T06:15:53;102131.59;;;12.74;76.71
18765;BME280;9511;54.242;12.448;2023-05-29T06:18:20;102134.00;;;12.90;76.42
18765;BME280;9511;54.242;12.448;2023-05-29T06:20:48;102138.81;;;12.78;74.84
18765;BME280;9511;54.242;12.448;2023-05-29T06:23:16;102142.31;;;12.77;74.66
18765;BME280;9511;54.242;12.448;2023-05-29T06:25:43;102145.16;;;12.59;75.43
18765;BME280;9511;54.242;12.448;2023-05-29T06:28:11;102148.78;;;12.61;75.55
18765;BME280;9511;54.242;12.448;2023-05-29T06:30:39;102145.44;;;12.67;76.65
18765;BME280;9511;54.242;12.448;2023-05-29T06:33:08;102146.72;;;12.76;75.77
18765;BME280;9511;54.242;12.448;2023-05-29T06:35:38;102143.22;;;12.77;75.00
18765;BME280;9511;54.242;12.448;2023-05-29T06:38:05;102156.81;;;12.63;74.89
18765;BME280;9511;54.242;12.448;2023-05-29T06:40:33;102152.22;;;12.81;74.79
18765;BME280;9511;54.242;12.448;2023-05-29T06:43:01;102149.94;;;12.68;74.45
18765;BME280;9511;54.242;12.448;2023-05-29T06:45:40;102161.09;;;12.82;74.89
18765;BME280;9511;54.242;12.448;2023-05-29T06:48:07;102155.91;;;12.85;75.20
18765;BME280;9511;54.242;12.448;2023-05-29T06:50:35;102156.56;;;12.79;74.84
18765;BME280;9511;54.242;12.448;2023-05-29T06:53:28;102145.88;;;12.77;75.41
18765;BME280;9511;54.242;12.448;2023-05-29T06:55:56;102149.31;;;12.75;75.04
18765;BME280;9511;54.242;12.448;2023-05-29T06:58:23;102157.72;;;13.10;74.21
18765;BME280;9511;54.242;12.448;2023-05-29T07:01:03;102157.72;;;12.86;74.00
18765;BME280;9511;54.242;12.448;2023-05-29T07:03:32;102155.81;;;12.83;73.46
18765;BME280;9511;54.242;12.448;2023-05-29T07:06:02;102158.22;;;12.99;73.30
18765;BME280;9511;54.242;12.448;2023-05-29T07:08:29;102154.84;;;13.03;72.96
18765;BME280;9511;54.242;12.448;2023-05-29T07:10:56;102163.53;;;13.22;73.01
18765;BME280;9511;54.242;12.448;2023-05-29T07:13:25;102162.03;;;13.30;72.14
18765;BME280;9511;54.242;12.448;2023-05-29T07:15:52;102167.66;;;13.38;70.90
18765;BME280;9511;54.242;12.448;2023-05-29T07:18:27;102172.84;;;13.35;71.17
18765;BME280;9511;54.242;12.448;2023-05-29T07:20:55;102175.28;;;13.28;72.36
18765;BME280;9511;54.242;12.448;2023-05-29T07:23:24;102176.13;;;13.27;72.73
18765;BME280;9511;54.242;12.448;2023-05-29T07:25:52;102186.31;;;13.17;72.99
18765;BME280;9511;54.242;12.448;2023-05-29T07:28:20;102186.06;;;13.33;72.92
18765;BME280;9511;54.242;12.448;2023-05-29T07:30:47;102183.13;;;13.49;73.57
18765;BME280;9511;54.242;12.448;2023-05-29T07:33:15;102184.72;;;13.44;72.92
18765;BME280;9511;54.242;12.448;2023-05-29T07:35:44;102193.97;;;13.55;72.92
18765;BME280;9511;54.242;12.448;2023-05-29T07:38:12;102191.66;;;13.41;71.89
18765;BME280;9511;54.242;12.448;2023-05-29T07:40:40;102188.97;;;13.65;72.09
18765;BME280;9511;54.242;12.448;2023-05-29T07:43:11;102186.56;;;13.71;71.09
18765;BME280;9511;54.242;12.448;2023-05-29T07:45:47;102190.25;;;13.76;71.37
18765;BME280;9511;54.242;12.448;2023-05-29T07:48:15;102195.91;;;13.85;71.52
18765;BME280;9511;54.242;12.448;2023-05-29T07:50:42;102189.00;;;13.90;71.29
18765;BME280;9511;54.242;12.448;2023-05-29T07:53:11;102200.91;;;14.01;69.87
18765;BME280;9511;54.242;12.448;2023-05-29T07:55:39;102204.59;;;14.05;69.10
18765;BME280;9511;54.242;12.448;2023-05-29T07:58:07;102203.16;;;14.16;69.67
18765;BME280;9511;54.242;12.448;2023-05-29T08:00:35;102198.31;;;14.04;69.21
18765;BME280;9511;54.242;12.448;2023-05-29T08:03:04;102191.53;;;14.13;68.71
18765;BME280;9511;54.242;12.448;2023-05-29T08:05:31;102201.75;;;14.27;68.16
18765;BME280;9511;54.242;12.448;2023-05-29T08:08:00;102196.25;;;14.47;67.97
18765;BME280;9511;54.242;12.448;2023-05-29T08:10:29;102203.22;;;14.72;67.86
18765;BME280;9511;54.242;12.448;2023-05-29T08:12:56;102203.22;;;14.72;65.84
18765;BME280;9511;54.242;12.448;2023-05-29T08:15:24;102192.44;;;14.40;66.09
18765;BME280;9511;54.242;12.448;2023-05-29T08:17:52;102194.78;;;14.31;65.10
18765;BME280;9511;54.242;12.448;2023-05-29T08:20:19;102192.38;;;14.39;64.96
18765;BME280;9511;54.242;12.448;2023-05-29T08:22:46;102196.47;;;14.54;64.08
18765;BME280;9511;54.242;12.448;2023-05-29T08:25:14;102200.50;;;14.69;65.09
18765;BME280;9511;54.242;12.448;2023-05-29T08:27:43;102190.59;;;14.39;64.88
18765;BME280;9511;54.242;12.448;2023-05-29T08:30:11;102190.28;;;14.84;64.08
18765;BME280;9511;54.242;12.448;2023-05-29T08:32:39;102192.44;;;14.67;63.46
18765;BME280;9511;54.242;12.448;2023-05-29T08:35:06;102182.53;;;14.92;64.34
18765;BME280;9511;54.242;12.448;2023-05-29T08:37:34;102187.59;;;15.12;63.31
18765;BME280;9511;54.242;12.448;2023-05-29T08:40:02;102185.25;;;14.93;62.99
18765;BME280;9511;54.242;12.448;2023-05-29T08:42:36;102187.06;;;14.94;63.31
18765;BME280;9511;54.242;12.448;2023-05-29T08:45:06;102188.97;;;14.98;63.63
18765;BME280;9511;54.242;12.448;2023-05-29T08:47:37;102198.06;;;15.06;63.82
18765;BME280;9511;54.242;12.448;2023-05-29T08:50:07;102197.13;;;15.04;63.00
18765;BME280;9511;54.242;12.448;2023-05-29T08:52:35;102199.50;;;14.95;63.08
18765;BME280;9511;54.242;12.448;2023-05-29T08:55:03;102199.44;;;15.22;63.55
18765;BME280;9511;54.242;12.448;2023-05-29T08:57:30;102200.38;;;15.24;62.35
18765;BME280;9511;54.242;12.448;2023-05-29T08:59:58;102204.97;;;15.30;60.94
18765;BME280;9511;54.242;12.448;2023-05-29T09:02:27;102210.47;;;15.36;59.73
18765;BME280;9511;54.242;12.448;2023-05-29T09:04:54;102210.44;;;15.34;58.82
18765;BME280;9511;54.242;12.448;2023-05-29T09:07:23;102204.84;;;14.95;59.77
18765;BME280;9511;54.242;12.448;2023-05-29T09:09:51;102205.03;;;15.01;61.26
18765;BME280;9511;54.242;12.448;2023-05-29T09:12:19;102208.47;;;14.69;61.63
18765;BME280;9511;54.242;12.448;2023-05-29T09:14:47;102223.75;;;14.47;62.32
18765;BME280;9511;54.242;12.448;2023-05-29T09:17:14;102212.59;;;14.59;63.38
18765;BME280;9511;54.242;12.448;2023-05-29T09:19:43;102211.59;;;14.84;61.60
18765;BME280;9511;54.242;12.448;2023-05-29T09:22:13;102213.38;;;15.13;60.86
18765;BME280;9511;54.242;12.448;2023-05-29T09:24:42;102207.63;;;15.30;60.07
18765;BME280;9511;54.242;12.448;2023-05-29T09:27:09;102213.69;;;15.54;59.51
18765;BME280;9511;54.242;12.448;2023-05-29T09:29:38;102221.00;;;15.93;59.17
18765;BME280;9511;54.242;12.448;2023-05-29T09:32:07;102219.97;;;15.88;59.19
18765;BME280;9511;54.242;12.448;2023-05-29T09:34:36;102219.47;;;15.70;60.26
18765;BME280;9511;54.242;12.448;2023-05-29T09:37:06;102217.41;;;15.92;60.75
18765;BME280;9511;54.242;12.448;2023-05-29T09:39:44;102219.03;;;16.20;58.92
18765;BME280;9511;54.242;12.448;2023-05-29T09:42:12;102222.91;;;16.33;59.31
18765;BME280;9511;54.242;12.448;2023-05-29T09:44:40;102214.88;;;15.97;58.80
18765;BME280;9511;54.242;12.448;2023-05-29T09:47:07;102216.53;;;16.27;60.28
18765;BME280;9511;54.242;12.448;2023-05-29T09:49:40;102210.03;;;16.52;58.30
18765;BME280;9511;54.242;12.448;2023-05-29T09:52:10;102215.22;;;16.82;58.18
18765;BME280;9511;54.242;12.448;2023-05-29T09:54:41;102214.91;;;16.33;58.53
18765;BME280;9511;54.242;12.448;2023-05-29T09:57:09;102204.91;;;15.90;59.53
18765;BME280;9511;54.242;12.448;2023-05-29T09:59:37;102202.28;;;15.91;59.26
18765;BME280;9511;54.242;12.448;2023-05-29T10:02:05;102205.97;;;16.31;58.31
18765;BME280;9511;54.242;12.448;2023-05-29T10:04:33;102197.78;;;16.61;56.82
18765;BME280;9511;54.242;12.448;2023-05-29T10:07:05;102203.06;;;16.58;56.22
18765;BME280;9511;54.242;12.448;2023-05-29T10:09:38;102211.38;;;16.70;55.79
18765;BME280;9511;54.242;12.448;2023-05-29T10:12:08;102200.59;;;16.67;55.28
18765;BME280;9511;54.242;12.448;2023-05-29T10:14:38;102199.72;;;17.06;55.67
18765;BME280;9511;54.242;12.448;2023-05-29T10:17:07;102208.84;;;16.75;56.73
18765;BME280;9511;54.242;12.448;2023-05-29T10:19:37;102206.06;;;17.11;56.63
18765;BME280;9511;54.242;12.448;2023-05-29T10:22:05;102201.22;;;17.36;56.63
18765;BME280;9511;54.242;12.448;2023-05-29T10:24:36;102201.34;;;17.42;54.78
18765;BME280;9511;54.242;12.448;2023-05-29T10:27:04;102208.78;;;17.58;54.64
18765;BME280;9511;54.242;12.448;2023-05-29T10:29:37;102206.06;;;17.11;54.65
18765;BME280;9511;54.242;12.448;2023-05-29T10:32:16;102210.47;;;17.53;54.75
18765;BME280;9511;54.242;12.448;2023-05-29T10:34:52;102207.50;;;17.38;54.93
18765;BME280;9511;54.242;12.448;2023-05-29T10:37:31;102201.63;;;18.01;54.84
18765;BME280;9511;54.242;12.448;2023-05-29T10:40:05;102207.00;;;18.04;53.39
18765;BME280;9511;54.242;12.448;2023-05-29T10:42:42;102213.31;;;18.08;53.09
18765;BME280;9511;54.242;12.448;2023-05-29T10:45:10;102206.50;;;17.76;54.48
18765;BME280;9511;54.242;12.448;2023-05-29T10:47:38;102208.38;;;17.81;53.01
18765;BME280;9511;54.242;12.448;2023-05-29T10:50:06;102204.28;;;18.57;54.18
18765;BME280;9511;54.242;12.448;2023-05-29T10:52:33;102204.69;;;18.25;52.96
18765;BME280;9511;54.242;12.448;2023-05-29T10:55:01;102191.19;;;18.74;52.57
18765;BME280;9511;54.242;12.448;2023-05-29T10:57:33;102201.25;;;18.33;52.33
18765;BME280;9511;54.242;12.448;2023-05-29T11:00:06;102196.22;;;18.52;52.81
18765;BME280;9511;54.242;12.448;2023-05-29T11:02:40;102182.75;;;18.51;51.17
18765;BME280;9511;54.242;12.448;2023-05-29T11:05:21;102187.59;;;18.72;51.83
18765;BME280;9511;54.242;12.448;2023-05-29T11:07:55;102184.78;;;19.31;50.73
18765;BME280;9511;54.242;12.448;2023-05-29T11:10:42;102176.84;;;19.42;49.88
18765;BME280;9511;54.242;12.448;2023-05-29T11:13:13;102172.25;;;19.30;50.77
18765;BME280;9511;54.242;12.448;2023-05-29T11:16:04;102173.59;;;18.93;49.19
18765;BME280;9511;54.242;12.448;2023-05-29T11:18:38;102172.06;;;19.15;50.22
18765;BME280;9511;54.242;12.448;2023-05-29T11:21:15;102173.28;;;19.43;49.37
18765;BME280;9511;54.242;12.448;2023-05-29T11:23:50;102172.25;;;20.18;49.18
18765;BME280;9511;54.242;12.448;2023-05-29T11:26:17;102169.31;;;19.89;48.90
18765;BME280;9511;54.242;12.448;2023-05-29T11:28:47;102169.97;;;19.65;48.12
18765;BME280;9511;54.242;12.448;2023-05-29T11:31:15;102166.16;;;20.39;47.84
18765;BME280;9511;54.242;12.448;2023-05-29T11:33:47;102168.56;;;20.07;49.20
18765;BME280;9511;54.242;12.448;2023-05-29T11:36:16;102174.72;;;19.92;48.38
18765;BME280;9511;54.242;12.448;2023-05-29T11:38:44;102164.13;;;20.07;47.78
18765;BME280;9511;54.242;12.448;2023-05-29T11:41:12;102173.19;;;20.23;47.32
18765;BME280;9511;54.242;12.448;2023-05-29T11:43:39;102165.91;;;19.23;48.26
18765;BME280;9511;54.242;12.448;2023-05-29T11:46:18;102161.44;;;19.22;49.84
18765;BME280;9511;54.242;12.448;2023-05-29T11:48:46;102155.88;;;19.08;49.99
18765;BME280;9511;54.242;12.448;2023-05-29T11:51:14;102146.97;;;19.92;50.43
18765;BME280;9511;54.242;12.448;2023-05-29T11:53:41;102161.84;;;20.64;48.48
18765;BME280;9511;54.242;12.448;2023-05-29T11:56:10;102162.78;;;20.67;47.74
18765;BME280;9511;54.242;12.448;2023-05-29T11:58:37;102154.63;;;20.51;49.32
18765;BME280;9511;54.242;12.448;2023-05-29T12:01:06;102163.47;;;20.39;48.64
18765;BME280;9511;54.242;12.448;2023-05-29T12:03:39;102164.09;;;20.03;49.08
18765;BME280;9511;54.242;12.448;2023-05-29T12:06:08;102165.00;;;20.05;50.72
18765;BME280;9511;54.242;12.448;2023-05-29T12:08:36;102175.69;;;19.96;49.35
18765;BME280;9511;54.242;12.448;2023-05-29T12:11:05;102175.69;;;19.99;49.32
18765;BME280;9511;54.242;12.448;2023-05-29T12:13:33;102167.47;;;19.79;49.33
18765;BME280;9511;54.242;12.448;2023-05-29T12:16:03;102176.03;;;19.46;50.03
18765;BME280;9511;54.242;12.448;2023-05-29T12:18:31;102182.56;;;19.69;50.20
18765;BME280;9511;54.242;12.448;2023-05-29T12:21:01;102174.25;;;19.49;50.83
18765;BME280;9511;54.242;12.448;2023-05-29T12:23:30;102172.34;;;20.27;50.77
18765;BME280;9511;54.242;12.448;2023-05-29T12:25:58;102174.44;;;20.69;48.87
18765;BME280;9511;54.242;12.448;2023-05-29T12:28:25;102175.19;;;20.46;49.90
18765;BME280;9511;54.242;12.448;2023-05-29T12:30:58;102178.25;;;21.16;48.71
18765;BME280;9511;54.242;12.448;2023-05-29T12:33:28;102169.28;;;21.08;47.11
18765;BME280;9511;54.242;12.448;2023-05-29T12:36:03;102171.84;;;20.82;47.71
18765;BME280;9511;54.242;12.448;2023-05-29T12:38:30;102182.06;;;20.11;48.40
18765;BME280;9511;54.242;12.448;2023-05-29T12:40:58;102172.22;;;20.12;49.38
18765;BME280;9511;54.242;12.448;2023-05-29T12:43:25;102166.50;;;20.88;49.15
18765;BME280;9511;54.242;12.448;2023-05-29T12:45:55;102162.16;;;21.25;47.59
18765;BME280;9511;54.242;12.448;2023-05-29T12:48:26;102160.50;;;21.58;45.26
18765;BME280;9511;54.242;12.448;2023-05-29T12:50:54;102162.03;;;20.98;46.12
18765;BME280;9511;54.242;12.448;2023-05-29T12:53:28;102168.38;;;21.06;46.54
18765;BME280;9511;54.242;12.448;2023-05-29T12:55:55;102160.16;;;20.81;46.79
18765;BME280;9511;54.242;12.448;2023-05-29T12:58:23;102159.53;;;21.36;46.33
18765;BME280;9511;54.242;12.448;2023-05-29T13:00:53;102153.91;;;20.84;47.53
18765;BME280;9511;54.242;12.448;2023-05-29T13:03:22;102154.19;;;21.48;46.47
18765;BME280;9511;54.242;12.448;2023-05-29T13:05:50;102155.66;;;20.74;46.21
18765;BME280;9511;54.242;12.448;2023-05-29T13:08:19;102144.13;;;21.01;47.66
18765;BME280;9511;54.242;12.448;2023-05-29T13:10:47;102150.06;;;20.43;46.62
18765;BME280;9511;54.242;12.448;2023-05-29T13:13:15;102153.53;;;20.29;47.91
18765;BME280;9511;54.242;12.448;2023-05-29T13:15:42;102141.47;;;21.15;47.67
18765;BME280;9511;54.242;12.448;2023-05-29T13:18:09;102147.03;;;21.70;45.78
18765;BME280;9511;54.242;12.448;2023-05-29T13:20:36;102148.88;;;22.09;46.33
18765;BME280;9511;54.242;12.448;2023-05-29T13:23:04;102149.78;;;22.10;45.68
18765;BME280;9511;54.242;12.448;2023-05-29T13:25:31;102155.13;;;21.73;44.69
18765;BME280;9511;54.242;12.448;2023-05-29T13:27:59;102154.88;;;20.95;46.43
18765;BME280;9511;54.242;12.448;2023-05-29T13:30:27;102144.94;;;20.77;48.41
18765;BME280;9511;54.242;12.448;2023-05-29T13:32:54;102158.53;;;21.21;47.26
18765;BME280;9511;54.242;12.448;2023-05-29T13:35:21;102156.91;;;21.63;45.94
18765;BME280;9511;54.242;12.448;2023-05-29T13:37:49;102153.34;;;21.63;44.31
18765;BME280;9511;54.242;12.448;2023-05-29T13:40:16;102146.16;;;21.71;44.39
18765;BME280;9511;54.242;12.448;2023-05-29T13:42:43;102148.72;;;21.28;45.47
18765;BME280;9511;54.242;12.448;2023-05-29T13:45:12;102153.31;;;21.57;46.07
18765;BME280;9511;54.242;12.448;2023-05-29T13:47:40;102147.88;;;21.38;45.59
18765;BME280;9511;54.242;12.448;2023-05-29T13:50:08;102146.88;;;21.21;45.80
18765;BME280;9511;54.242;12.448;2023-05-29T13:52:36;102148.75;;;21.33;45.13
18765;BME280;9511;54.242;12.448;2023-05-29T13:55:04;102140.75;;;21.89;44.18
18765;BME280;9511;54.242;12.448;2023-05-29T13:57:34;102139.00;;;22.13;44.21
18765;BME280;9511;54.242;12.448;2023-05-29T14:00:02;102148.78;;;22.83;43.65
18765;BME280;9511;54.242;12.448;2023-05-29T14:02:34;102146.16;;;21.80;43.30
18765;BME280;9511;54.242;12.448;2023-05-29T14:05:01;102147.94;;;22.65;43.15
18765;BME280;9511;54.242;12.448;2023-05-29T14:07:29;102129.97;;;22.47;42.84
18765;BME280;9511;54.242;12.448;2023-05-29T14:09:56;102138.09;;;22.18;42.06
18765;BME280;9511;54.242;12.448;2023-05-29T14:12:23;102140.75;;;21.71;43.68
18765;BME280;9511;54.242;12.448;2023-05-29T14:14:51;102139.88;;;22.24;44.38
18765;BME280;9511;54.242;12.448;2023-05-29T14:17:18;102134.47;;;22.39;44.56
18765;BME280;9511;54.242;12.448;2023-05-29T14:19:46;102142.53;;;22.58;42.93
18765;BME280;9511;54.242;12.448;2023-05-29T14:22:14;102139.41;;;23.58;42.90
18765;BME280;9511;54.242;12.448;2023-05-29T14:24:41;102141.59;;;22.71;41.89
18765;BME280;9511;54.242;12.448;2023-05-29T14:27:08;102130.81;;;22.72;42.76
18765;BME280;9511;54.242;12.448;2023-05-29T14:29:35;102137.72;;;23.38;41.73
18765;BME280;9511;54.242;12.448;2023-05-29T14:32:03;102138.50;;;23.63;41.85
18765;BME280;9511;54.242;12.448;2023-05-29T14:34:31;102130.72;;;24.35;40.68
18765;BME280;9511;54.242;12.448;2023-05-29T14:36:59;102144.34;;;24.21;39.02
18765;BME280;9511;54.242;12.448;2023-05-29T14:39:27;102136.47;;;23.91;40.61
18765;BME280;9511;54.242;12.448;2023-05-29T14:41:54;102120.13;;;24.07;40.61
18765;BME280;9511;54.242;12.448;2023-05-29T14:44:21;102127.47;;;23.90;40.39
18765;BME280;9511;54.242;12.448;2023-05-29T14:46:48;102126.03;;;23.40;41.27
18765;BME280;9511;54.242;12.448;2023-05-29T14:49:16;102129.47;;;23.67;40.82
18765;BME280;9511;54.242;12.448;2023-05-29T14:51:43;102122.47;;;23.35;40.50
18765;BME280;9511;54.242;12.448;2023-05-29T14:54:12;102121.81;;;22.69;40.58
18765;BME280;9511;54.242;12.448;2023-05-29T14:56:39;102115.56;;;22.58;40.97
18765;BME280;9511;54.242;12.448;2023-05-29T14:59:06;102117.38;;;22.52;42.48
18765;BME280;9511;54.242;12.448;2023-05-29T15:01:34;102120.03;;;22.65;41.96
18765;BME280;9511;54.242;12.448;2023-05-29T15:04:01;102110.97;;;22.95;42.58
18765;BME280;9511;54.242;12.448;2023-05-29T15:06:28;102119.81;;;23.21;41.57
18765;BME280;9511;54.242;12.448;2023-05-29T15:08:57;102108.81;;;23.53;41.28
18765;BME280;9511;54.242;12.448;2023-05-29T15:11:28;102105.84;;;23.90;41.40
18765;BME280;9511;54.242;12.448;2023-05-29T15:13:56;102111.38;;;23.78;38.37
18765;BME280;9511;54.242;12.448;2023-05-29T15:16:23;102099.31;;;24.17;37.81
18765;BME280;9511;54.242;12.448;2023-05-29T15:18:50;102099.28;;;24.19;38.48
18765;BME280;9511;54.242;12.448;2023-05-29T15:21:18;102100.97;;;24.30;39.17
18765;BME280;9511;54.242;12.448;2023-05-29T15:23:45;102103.06;;;24.87;37.38
18765;BME280;9511;54.242;12.448;2023-05-29T15:26:12;102103.81;;;24.98;37.08
18765;BME280;9511;54.242;12.448;2023-05-29T15:28:41;102102.81;;;25.08;37.86
18765;BME280;9511;54.242;12.448;2023-05-29T15:31:08;102107.06;;;24.52;37.85
18765;BME280;9511;54.242;12.448;2023-05-29T15:33:35;102103.19;;;24.78;39.19
18765;BME280;9511;54.242;12.448;2023-05-29T15:36:03;102109.03;;;24.40;39.38
18765;BME280;9511;54.242;12.448;2023-05-29T15:38:31;102107.69;;;23.85;39.12
18765;BME280;9511;54.242;12.448;2023-05-29T15:40:59;102100.97;;;24.32;39.97
18765;BME280;9511;54.242;12.448;2023-05-29T15:43:26;102099.41;;;24.09;37.72
18765;BME280;9511;54.242;12.448;2023-05-29T15:45:55;102101.97;;;22.91;39.43
18765;BME280;9511;54.242;12.448;2023-05-29T15:48:23;102102.59;;;23.39;40.42
18765;BME280;9511;54.242;12.448;2023-05-29T15:50:50;102098.84;;;23.62;40.05
18765;BME280;9511;54.242;12.448;2023-05-29T15:53:18;102107.44;;;22.67;41.76
18765;BME280;9511;54.242;12.448;2023-05-29T15:55:45;102102.88;;;22.84;41.38
18765;BME280;9511;54.242;12.448;2023-05-29T15:58:12;102105.72;;;21.46;42.25
18765;BME280;9511;54.242;12.448;2023-05-29T16:00:39;102100.38;;;22.12;43.41
18765;BME280;9511;54.242;12.448;2023-05-29T16:03:08;102102.16;;;22.04;42.88